createdAt,value
2018-03-27T00:00:44.376Z,29.63
2018-03-27T00:03:12.277Z,31.02
2018-03-27T00:05:39.807Z,28.30
2018-03-27T00:08:07.292Z,27.83
2018-03-27T00:10:34.814Z,27.45
2018-03-27T00:13:02.305Z,31.37
2018-03-27T00:15:29.890Z,32.90
2018-03-27T00:17:57.779Z,31.92
2018-03-27T00:20:25.690Z,26.77
2018-03-27T00:22:53.258Z,26.17
2018-03-27T00:25:21.236Z,25.30
2018-03-27T00:28:00.413Z,32.47
2018-03-27T00:30:39.875Z,29.80
2018-03-27T00:33:19.750Z,29.58
2018-03-27T00:35:59.449Z,27.77
2018-03-27T00:38:38.751Z,28.90
2018-03-27T00:43:59.557Z,29.50
2018-03-27T00:46:27.554Z,32.95
2018-03-27T00:48:55.450Z,28.08
2018-03-27T00:51:23.349Z,32.60
2018-03-27T00:53:51.240Z,31.95
2018-03-27T00:56:19.154Z,33.28
2018-03-27T00:58:46.651Z,43.45
2018-03-27T01:01:14.173Z,36.67
2018-03-27T01:03:41.656Z,35.65
2018-03-27T01:06:09.173Z,37.92
2018-03-27T01:08:37.057Z,45.65
2018-03-27T01:11:05.041Z,37.78
2018-03-27T01:13:33.035Z,49.22
2018-03-27T01:16:00.545Z,53.63
2018-03-27T01:18:28.101Z,53.28
2018-03-27T01:20:55.684Z,48.97
2018-03-27T01:23:23.181Z,53.50
2018-03-27T01:25:51.079Z,48.35
2018-03-27T01:28:18.960Z,49.90
2018-03-27T01:30:46.940Z,51.50
2018-03-27T01:33:14.424Z,49.83
2018-03-27T01:35:41.946Z,48.58
2018-03-27T01:38:09.506Z,49.30
2018-03-27T01:40:37.502Z,45.53
2018-03-27T01:43:05.384Z,37.15
2018-03-27T01:45:33.283Z,41.95
2018-03-27T01:48:01.189Z,39.10
2018-03-27T01:50:29.167Z,45.05
2018-03-27T01:52:57.153Z,43.03
2018-03-27T01:55:24.646Z,42.05
2018-03-27T01:57:52.556Z,38.33
2018-03-27T02:00:20.046Z,47.25
2018-03-27T02:02:47.558Z,50.60
2018-03-27T02:05:15.060Z,48.78
2018-03-27T02:07:42.568Z,38.35
2018-03-27T02:10:10.057Z,42.53
2018-03-27T02:12:43.644Z,45.75
2018-03-27T02:15:16.894Z,45.78
2018-03-27T02:17:50.200Z,42.15
2018-03-27T02:20:23.467Z,42.00
2018-03-27T02:23:06.772Z,44.47
2018-03-27T02:25:34.292Z,46.92
2018-03-27T02:28:02.269Z,51.30
2018-03-27T02:30:30.156Z,44.13
2018-03-27T02:32:58.057Z,46.53
2018-03-27T02:35:25.951Z,48.45
2018-03-27T02:37:53.874Z,41.75
2018-03-27T02:40:21.375Z,45.78
2018-03-27T02:42:48.884Z,41.47
2018-03-27T02:45:16.391Z,45.90
2018-03-27T02:47:44.396Z,46.75
2018-03-27T02:50:12.384Z,47.33
2018-03-27T02:52:40.370Z,48.25
2018-03-27T02:55:07.948Z,47.25
2018-03-27T02:57:35.466Z,49.83
2018-03-27T03:00:02.976Z,42.30
2018-03-27T03:02:30.486Z,43.92
2018-03-27T03:04:58.194Z,44.45
2018-03-27T03:07:26.105Z,45.65
2018-03-27T03:09:54.000Z,47.30
2018-03-27T03:12:21.977Z,46.60
2018-03-27T03:14:49.468Z,46.28
2018-03-27T03:17:17.378Z,41.05
2018-03-27T03:19:44.882Z,48.97
2018-03-27T03:22:12.396Z,48.67
2018-03-27T03:24:39.884Z,46.78
2018-03-27T03:27:07.369Z,49.80
2018-03-27T03:29:34.969Z,46.55
2018-03-27T03:32:02.853Z,44.60
2018-03-27T03:34:30.362Z,47.17
2018-03-27T03:36:57.875Z,45.08
2018-03-27T03:39:25.420Z,52.95
2018-03-27T03:41:53.308Z,45.28
2018-03-27T03:44:20.822Z,47.90
2018-03-27T03:46:48.308Z,46.28
2018-03-27T03:49:15.817Z,44.53
2018-03-27T03:51:43.316Z,46.33
2018-03-27T03:54:10.930Z,49.88
2018-03-27T03:56:38.813Z,51.67
2018-03-27T03:59:06.401Z,46.00
2018-03-27T04:01:33.901Z,45.45
2018-03-27T04:04:01.875Z,48.75
2018-03-27T04:06:29.466Z,47.38
2018-03-27T04:08:57.463Z,51.88
2018-03-27T04:11:25.462Z,52.15
2018-03-27T04:13:53.455Z,51.72
2018-03-27T04:16:20.948Z,48.72
2018-03-27T04:18:48.853Z,50.50
2018-03-27T04:21:16.405Z,52.22
2018-03-27T04:23:43.909Z,47.80
2018-03-27T04:26:11.918Z,52.75
2018-03-27T04:28:39.413Z,54.15
2018-03-27T04:31:06.901Z,65.50
2018-03-27T04:33:34.452Z,60.22
2018-03-27T04:36:02.438Z,60.67
2018-03-27T04:38:30.347Z,68.30
2018-03-27T04:40:57.837Z,59.40
2018-03-27T04:43:25.398Z,52.85
2018-03-27T04:45:52.895Z,61.80
2018-03-27T04:48:20.864Z,68.32
2018-03-27T04:50:48.366Z,67.97
2018-03-27T04:53:16.349Z,52.15
2018-03-27T04:55:43.870Z,59.53
2018-03-27T04:58:11.371Z,58.15
2018-03-27T05:00:38.988Z,63.03
2018-03-27T05:03:06.576Z,68.12
2018-03-27T05:05:34.098Z,65.40
2018-03-27T05:08:01.645Z,62.13
2018-03-27T05:10:29.232Z,58.45
2018-03-27T05:12:56.826Z,61.35
2018-03-27T05:15:24.350Z,66.28
2018-03-27T05:17:51.836Z,63.10
2018-03-27T05:20:19.364Z,65.87
2018-03-27T05:22:46.957Z,67.57
2018-03-27T05:25:14.545Z,64.28
2018-03-27T05:27:42.424Z,64.15
2018-03-27T05:30:10.026Z,59.25
2018-03-27T05:32:38.005Z,70.00
2018-03-27T05:35:05.594Z,66.47
2018-03-27T05:37:33.076Z,61.47
2018-03-27T05:40:00.584Z,61.70
2018-03-27T05:42:28.552Z,60.05
2018-03-27T05:44:56.150Z,68.72
2018-03-27T05:47:24.762Z,64.60
2018-03-27T05:49:52.674Z,65.07
2018-03-27T05:52:20.165Z,59.40
2018-03-27T05:54:47.686Z,64.25
2018-03-27T05:57:15.186Z,58.28
2018-03-27T05:59:42.702Z,58.13
2018-03-27T06:02:10.191Z,51.92
2018-03-27T06:04:37.702Z,52.20
2018-03-27T06:07:05.198Z,55.25
2018-03-27T06:09:32.709Z,47.62
2018-03-27T06:12:00.201Z,59.00
2018-03-27T06:14:28.114Z,51.53
2018-03-27T06:16:55.600Z,51.35
2018-03-27T06:19:23.120Z,54.72
2018-03-27T06:21:50.608Z,54.72
2018-03-27T06:24:18.100Z,49.15
2018-03-27T06:26:45.620Z,59.45
2018-03-27T06:29:13.513Z,54.83
2018-03-27T06:31:41.029Z,53.70
2018-03-27T06:34:08.532Z,59.53
2018-03-27T06:36:36.049Z,59.22
2018-03-27T06:39:03.963Z,59.13
2018-03-27T06:41:31.516Z,58.63
2018-03-27T06:43:59.001Z,61.05
2018-03-27T06:46:26.517Z,60.28
2018-03-27T06:48:54.000Z,66.20
2018-03-27T06:51:21.501Z,63.50
2018-03-27T06:53:49.046Z,60.92
2018-03-27T06:56:16.949Z,59.67
2018-03-27T06:58:44.843Z,56.45
2018-03-27T07:01:12.746Z,62.20
2018-03-27T07:03:40.305Z,67.72
2018-03-27T07:06:07.798Z,52.90
2018-03-27T07:08:35.787Z,61.85
2018-03-27T07:11:03.793Z,64.10
2018-03-27T07:13:31.762Z,59.42
2018-03-27T07:15:59.780Z,65.90
2018-03-27T07:18:27.304Z,62.30
2018-03-27T07:20:54.858Z,58.45
2018-03-27T07:23:22.742Z,70.40
2018-03-27T07:25:50.252Z,65.90
2018-03-27T07:28:17.781Z,63.72
2018-03-27T07:30:45.367Z,61.42
2018-03-27T07:33:12.866Z,64.80
2018-03-27T07:35:40.765Z,66.95
2018-03-27T07:38:08.736Z,61.78
2018-03-27T07:40:36.246Z,54.88
2018-03-27T07:43:04.132Z,59.00
2018-03-27T07:45:32.109Z,56.00
2018-03-27T07:47:59.611Z,59.83
2018-03-27T07:50:27.580Z,56.63
2018-03-27T07:52:55.094Z,62.40
2018-03-27T07:55:22.986Z,58.75
2018-03-27T07:57:50.889Z,59.17
2018-03-27T08:00:18.372Z,50.30
2018-03-27T08:02:45.886Z,53.87
2018-03-27T08:05:13.369Z,56.70
2018-03-27T08:07:40.872Z,54.17
2018-03-27T08:10:08.357Z,58.97
2018-03-27T08:12:35.872Z,60.22
2018-03-27T08:15:03.356Z,52.90
2018-03-27T08:17:31.253Z,51.37
2018-03-27T08:19:58.740Z,58.40
2018-03-27T08:22:26.248Z,55.95
2018-03-27T08:24:53.747Z,51.88
2018-03-27T08:27:21.368Z,55.38
2018-03-27T08:29:49.272Z,54.47
2018-03-27T08:32:17.255Z,59.85
2018-03-27T08:34:45.146Z,57.20
2018-03-27T08:37:13.138Z,52.40
2018-03-27T08:39:40.629Z,55.72
2018-03-27T08:42:08.532Z,51.33
2018-03-27T08:44:36.412Z,49.85
2018-03-27T08:47:04.327Z,51.58
2018-03-27T08:49:31.834Z,52.05
2018-03-27T08:51:59.350Z,48.03
2018-03-27T08:54:26.946Z,47.35
2018-03-27T08:56:54.460Z,49.45
2018-03-27T08:59:22.019Z,50.08
2018-03-27T09:01:50.008Z,48.72
2018-03-27T09:04:17.606Z,48.95
2018-03-27T09:06:45.526Z,40.33
2018-03-27T09:09:13.021Z,42.92
2018-03-27T09:11:40.558Z,50.10
2018-03-27T09:14:08.154Z,45.03
2018-03-27T09:16:36.055Z,49.33
2018-03-27T09:19:03.574Z,43.58
2018-03-27T09:21:31.060Z,42.28
2018-03-27T09:23:58.584Z,42.17
2018-03-27T09:26:26.472Z,37.70
2018-03-27T09:28:53.989Z,39.10
2018-03-27T09:31:21.488Z,44.92
2018-03-27T09:33:49.060Z,40.75
2018-03-27T09:36:16.548Z,37.85
2018-03-27T09:38:44.069Z,38.17
2018-03-27T09:41:11.608Z,34.92
2018-03-27T09:43:39.582Z,37.72
2018-03-27T09:46:07.081Z,31.45
2018-03-27T09:48:34.676Z,30.80
2018-03-27T09:51:02.181Z,29.63
2018-03-27T09:53:29.814Z,29.30
2018-03-27T09:55:57.726Z,25.58
2018-03-27T09:58:25.289Z,23.35
2018-03-27T10:00:53.285Z,22.33
2018-03-27T10:03:21.211Z,20.45
2018-03-27T10:05:48.847Z,19.73
2018-03-27T10:08:16.365Z,21.73
2018-03-27T10:10:44.326Z,24.30
2018-03-27T10:13:11.937Z,23.62
2018-03-27T10:15:39.858Z,29.10
2018-03-27T10:18:07.382Z,24.02
2018-03-27T10:20:35.011Z,30.80
2018-03-27T10:23:02.540Z,24.80
2018-03-27T10:25:30.067Z,23.92
2018-03-27T10:27:58.070Z,19.40
2018-03-27T10:30:25.655Z,15.23
2018-03-27T10:32:53.168Z,21.95
2018-03-27T10:35:20.661Z,22.17
2018-03-27T10:37:48.156Z,21.27
2018-03-27T10:40:15.674Z,20.80
2018-03-27T10:42:43.656Z,16.35
2018-03-27T10:45:11.192Z,14.57
2018-03-27T10:47:38.737Z,10.88
2018-03-27T10:50:06.846Z,12.88
2018-03-27T10:52:34.360Z,12.97
2018-03-27T10:55:01.893Z,11.33
2018-03-27T10:57:29.394Z,13.10
2018-03-27T10:59:57.305Z,13.57
2018-03-27T11:02:24.867Z,12.57
2018-03-27T11:04:52.787Z,12.60
2018-03-27T11:07:20.283Z,12.97
2018-03-27T11:09:47.804Z,13.17
2018-03-27T11:12:15.307Z,19.00
2018-03-27T11:14:43.231Z,17.70
2018-03-27T11:17:10.739Z,19.27
2018-03-27T11:19:38.361Z,19.90
2018-03-27T11:22:05.948Z,19.17
2018-03-27T11:24:33.875Z,18.37
2018-03-27T11:27:01.372Z,17.13
2018-03-27T11:29:28.918Z,18.90
2018-03-27T11:31:56.814Z,22.87
2018-03-27T11:34:24.794Z,22.30
2018-03-27T11:36:52.703Z,20.10
2018-03-27T11:39:20.293Z,19.83
2018-03-27T11:41:48.187Z,21.00
2018-03-27T11:44:15.758Z,19.53
2018-03-27T11:46:43.736Z,18.53
2018-03-27T11:49:11.649Z,19.87
2018-03-27T11:51:39.217Z,16.70
2018-03-27T11:54:07.190Z,17.17
2018-03-27T11:56:34.699Z,19.97
2018-03-27T11:59:02.706Z,14.95
2018-03-27T12:01:30.617Z,17.48
2018-03-27T12:03:58.168Z,18.20
2018-03-27T12:06:26.072Z,17.92
2018-03-27T12:08:54.062Z,17.10
2018-03-27T12:11:21.969Z,19.00
2018-03-27T12:13:49.478Z,20.55
2018-03-27T12:16:17.023Z,17.40
2018-03-27T12:18:45.005Z,15.40
2018-03-27T12:21:12.594Z,17.37
2018-03-27T12:23:40.088Z,19.70
2018-03-27T12:26:08.006Z,20.20
2018-03-27T12:28:35.562Z,20.20
2018-03-27T12:31:03.560Z,23.57
2018-03-27T12:33:31.463Z,22.03
2018-03-27T12:35:58.980Z,24.20
2018-03-27T12:38:26.506Z,20.30
2018-03-27T12:40:54.043Z,22.73
2018-03-27T12:43:21.536Z,27.57
2018-03-27T12:45:49.044Z,23.97
2018-03-27T12:48:16.645Z,26.23
2018-03-27T12:50:44.159Z,25.03
2018-03-27T12:53:11.706Z,24.37
2018-03-27T12:55:39.181Z,26.70
2018-03-27T12:58:06.672Z,24.30
2018-03-27T13:00:34.189Z,25.60
2018-03-27T13:03:01.710Z,25.27
2018-03-27T13:05:29.224Z,28.47
2018-03-27T13:07:56.727Z,26.80
2018-03-27T13:10:24.236Z,23.80
2018-03-27T13:12:51.742Z,21.60
2018-03-27T13:15:19.267Z,27.80
2018-03-27T13:17:46.789Z,27.23
2018-03-27T13:20:14.325Z,24.60
2018-03-27T13:22:42.223Z,27.75
2018-03-27T13:25:09.814Z,24.35
2018-03-27T13:27:37.316Z,22.00
2018-03-27T13:30:04.833Z,25.80
2018-03-27T13:32:32.337Z,27.23
2018-03-27T13:34:59.866Z,26.27
2018-03-27T13:37:27.539Z,28.00
2018-03-27T13:39:55.045Z,25.02
2018-03-27T13:42:22.682Z,26.05
2018-03-27T13:44:50.583Z,27.98
2018-03-27T13:47:18.130Z,25.03
2018-03-27T13:49:45.638Z,26.60
2018-03-27T13:52:13.264Z,25.85
2018-03-27T13:54:40.765Z,24.83
2018-03-27T13:57:08.396Z,29.33
2018-03-27T13:59:35.906Z,27.02
2018-03-27T14:02:03.423Z,25.03
2018-03-27T14:04:30.960Z,30.10
2018-03-27T14:06:58.954Z,24.07
2018-03-27T14:09:26.856Z,23.92
2018-03-27T14:11:54.838Z,24.87
2018-03-27T14:14:22.860Z,25.85
2018-03-27T14:16:50.425Z,26.52
2018-03-27T14:19:18.316Z,27.10
2018-03-27T14:21:46.347Z,27.20
2018-03-27T14:24:13.848Z,27.67
2018-03-27T14:26:41.456Z,27.83
2018-03-27T14:29:09.064Z,24.15
2018-03-27T14:31:36.984Z,27.65
2018-03-27T14:34:04.506Z,27.95
2018-03-27T14:36:32.328Z,23.08
2018-03-27T14:39:00.323Z,27.98
2018-03-27T14:41:28.360Z,32.55
2018-03-27T14:43:55.904Z,27.73
2018-03-27T14:46:23.965Z,31.05
2018-03-27T14:48:51.474Z,27.83
2018-03-27T14:51:19.402Z,30.42
2018-03-27T14:53:46.898Z,34.08
2018-03-27T14:56:14.418Z,27.77
2018-03-27T14:58:41.926Z,29.90
2018-03-27T15:01:09.874Z,30.12
2018-03-27T15:03:37.392Z,31.08
2018-03-27T15:06:04.982Z,33.78
2018-03-27T15:08:32.510Z,34.33
2018-03-27T15:11:00.014Z,31.87
2018-03-27T15:13:27.554Z,30.10
2018-03-27T15:15:55.462Z,33.42
2018-03-27T15:18:23.001Z,31.62
2018-03-27T15:20:50.502Z,36.10
2018-03-27T15:23:18.408Z,34.90
2018-03-27T15:25:45.906Z,33.05
2018-03-27T15:28:13.427Z,34.63
2018-03-27T15:30:40.933Z,32.50
2018-03-27T15:33:08.453Z,34.50
2018-03-27T15:35:35.943Z,33.88
2018-03-27T15:38:03.490Z,30.08
2018-03-27T15:40:31.386Z,30.02
2018-03-27T15:42:59.374Z,34.03
2018-03-27T15:45:27.265Z,33.83
2018-03-27T15:47:55.190Z,32.75
2018-03-27T15:50:22.696Z,32.20
2018-03-27T15:52:50.200Z,32.72
2018-03-27T15:55:17.695Z,33.38
2018-03-27T15:57:45.214Z,34.95
2018-03-27T16:00:13.194Z,32.70
2018-03-27T16:02:41.100Z,29.50
2018-03-27T16:05:08.983Z,32.25
2018-03-27T16:07:36.888Z,31.75
2018-03-27T16:10:04.778Z,29.90
2018-03-27T16:12:32.691Z,30.15
2018-03-27T16:15:00.202Z,31.95
2018-03-27T16:17:27.709Z,26.95
2018-03-27T16:19:55.292Z,29.87
2018-03-27T16:22:22.801Z,28.00
2018-03-27T16:24:50.705Z,32.35
2018-03-27T16:27:18.221Z,31.95
2018-03-27T16:29:45.745Z,34.08
2018-03-27T16:32:13.252Z,32.83
2018-03-27T16:34:40.774Z,30.48
2018-03-27T16:37:08.307Z,35.47
2018-03-27T16:39:36.212Z,35.40
2018-03-27T16:42:03.716Z,37.88
2018-03-27T16:44:31.264Z,37.30
2018-03-27T16:46:59.244Z,38.03
2018-03-27T16:49:26.752Z,42.70
2018-03-27T16:51:54.650Z,41.33
2018-03-27T16:54:22.175Z,39.47
2018-03-27T16:56:49.692Z,38.63
2018-03-27T16:59:17.290Z,35.80
2018-03-27T17:01:45.231Z,35.70
2018-03-27T17:04:12.743Z,31.00
2018-03-27T17:06:40.235Z,35.45
2018-03-27T17:09:07.798Z,34.45
2018-03-27T17:11:35.338Z,28.40
2018-03-27T17:14:02.888Z,32.85
2018-03-27T17:16:30.487Z,31.40
2018-03-27T17:18:58.464Z,26.25
2018-03-27T17:21:25.958Z,22.77
2018-03-27T17:23:53.473Z,19.75
2018-03-27T17:26:21.021Z,22.45
2018-03-27T17:28:48.538Z,22.33
2018-03-27T17:31:16.096Z,22.65
2018-03-27T17:33:44.086Z,21.58
2018-03-27T17:36:11.577Z,23.38
2018-03-27T17:38:39.476Z,23.83
2018-03-27T17:41:07.444Z,22.00
2018-03-27T17:43:34.953Z,24.15
2018-03-27T17:46:02.496Z,27.35
2018-03-27T17:48:30.092Z,28.00
2018-03-27T17:50:57.576Z,37.65
2018-03-27T17:53:25.080Z,33.38
2018-03-27T17:55:53.062Z,28.67
2018-03-27T17:58:20.589Z,31.80
2018-03-27T18:00:48.096Z,27.95
2018-03-27T18:03:15.580Z,34.42
2018-03-27T18:05:43.084Z,37.90
2018-03-27T18:08:10.582Z,36.25
2018-03-27T18:10:38.494Z,37.47
2018-03-27T18:13:05.994Z,34.58
2018-03-27T18:15:33.532Z,36.90
2018-03-27T18:18:01.024Z,42.75
2018-03-27T18:20:29.068Z,40.22
2018-03-27T18:22:56.604Z,41.13
2018-03-27T18:25:24.677Z,42.50
2018-03-27T18:27:52.273Z,43.72
2018-03-27T18:30:19.958Z,42.15
2018-03-27T18:32:47.547Z,46.70
2018-03-27T18:35:15.363Z,41.95
2018-03-27T18:37:43.244Z,42.55
2018-03-27T18:40:11.140Z,46.37
2018-03-27T18:42:39.021Z,48.33
2018-03-27T18:45:06.606Z,45.60
2018-03-27T18:47:34.198Z,52.67
2018-03-27T18:50:02.163Z,43.87
2018-03-27T18:52:29.760Z,45.63
2018-03-27T18:54:57.265Z,45.50
2018-03-27T18:57:25.159Z,51.17
2018-03-27T18:59:53.169Z,48.15
2018-03-27T19:02:20.674Z,49.80
2018-03-27T19:04:48.221Z,46.53
2018-03-27T19:07:15.704Z,57.03
2018-03-27T19:09:43.676Z,55.67
2018-03-27T19:12:11.160Z,51.70
2018-03-27T19:14:39.076Z,55.10
2018-03-27T19:17:06.977Z,57.13
2018-03-27T19:19:34.492Z,59.20
2018-03-27T19:22:01.977Z,51.72
2018-03-27T19:24:29.607Z,52.65
2018-03-27T19:26:57.612Z,44.00
2018-03-27T19:29:25.600Z,44.88
2018-03-27T19:31:53.613Z,49.63
2018-03-27T19:34:21.114Z,47.75
2018-03-27T19:36:48.770Z,45.60
2018-03-27T19:39:16.649Z,44.42
2018-03-27T19:41:44.264Z,49.05
2018-03-27T19:44:11.762Z,52.17
2018-03-27T19:46:39.322Z,52.53
2018-03-27T19:49:06.841Z,43.28
2018-03-27T19:51:34.488Z,48.17
2018-03-27T19:54:02.043Z,48.58
2018-03-27T19:56:29.552Z,52.10
2018-03-27T19:58:57.116Z,55.53
2018-03-27T20:01:24.622Z,56.72
2018-03-27T20:03:52.519Z,51.22
2018-03-27T20:06:20.097Z,52.25
2018-03-27T20:08:47.988Z,52.62
2018-03-27T20:11:15.708Z,49.58
2018-03-27T20:13:43.246Z,54.10
2018-03-27T20:16:11.264Z,54.38
2018-03-27T20:18:39.256Z,49.08
2018-03-27T20:21:07.285Z,55.78
2018-03-27T20:23:34.772Z,57.03
2018-03-27T20:26:02.373Z,54.22
2018-03-27T20:28:29.874Z,53.30
2018-03-27T20:30:57.528Z,46.88
2018-03-27T20:33:25.062Z,50.40
2018-03-27T20:35:53.025Z,48.92
2018-03-27T20:38:20.549Z,52.25
2018-03-27T20:40:48.239Z,49.92
2018-03-27T20:43:16.222Z,41.58
2018-03-27T20:45:44.254Z,51.37
2018-03-27T20:48:11.750Z,49.95
2018-03-27T20:50:39.258Z,50.75
2018-03-27T20:53:06.758Z,47.30
2018-03-27T20:55:34.376Z,43.87
2018-03-27T20:58:01.949Z,43.87
2018-03-27T21:00:29.832Z,45.95
2018-03-27T21:02:57.839Z,41.55
2018-03-27T21:05:25.458Z,47.60
2018-03-27T21:07:52.955Z,40.25
2018-03-27T21:10:20.464Z,40.70
2018-03-27T21:12:48.029Z,36.70
2018-03-27T21:15:15.516Z,40.47
2018-03-27T21:17:43.035Z,41.83
2018-03-27T21:20:10.930Z,44.38
2018-03-27T21:22:38.923Z,40.83
2018-03-27T21:25:06.812Z,42.03
2018-03-27T21:27:34.823Z,44.33
2018-03-27T21:30:02.693Z,42.33
2018-03-27T21:32:30.676Z,47.03
2018-03-27T21:34:58.177Z,44.70
2018-03-27T21:37:26.090Z,46.85
2018-03-27T21:39:53.644Z,46.65
2018-03-27T21:42:21.157Z,39.60
2018-03-27T21:44:48.701Z,42.78
2018-03-27T21:47:16.208Z,41.85
2018-03-27T21:49:44.092Z,41.17
2018-03-27T21:52:12.219Z,41.58
2018-03-27T21:54:39.790Z,43.33
2018-03-27T21:57:07.698Z,41.05
2018-03-27T21:59:35.212Z,46.28
2018-03-27T22:02:02.723Z,46.05
2018-03-27T22:04:30.256Z,40.47
2018-03-27T22:06:57.782Z,41.97
2018-03-27T22:09:25.382Z,42.47
2018-03-27T22:11:52.892Z,37.38
2018-03-27T22:14:20.399Z,42.25
2018-03-27T22:16:47.918Z,41.75
2018-03-27T22:19:15.414Z,36.22
2018-03-27T22:21:42.921Z,37.60
2018-03-27T22:24:10.426Z,37.95
2018-03-27T22:26:37.925Z,41.75
2018-03-27T22:29:05.438Z,40.50
2018-03-27T22:31:33.033Z,46.15
2018-03-27T22:34:00.590Z,37.95
2018-03-27T22:36:28.090Z,41.22
2018-03-27T22:38:55.681Z,44.53
2018-03-27T22:41:23.284Z,44.88
2018-03-27T22:43:51.268Z,37.45
2018-03-27T22:46:19.261Z,36.88
2018-03-27T22:48:46.766Z,33.72
2018-03-27T22:51:14.654Z,38.05
2018-03-27T22:53:42.641Z,37.70
2018-03-27T22:56:10.150Z,34.88
2018-03-27T22:58:37.706Z,28.98
2018-03-27T23:01:05.686Z,32.92
2018-03-27T23:03:33.204Z,32.35
2018-03-27T23:06:00.688Z,37.08
2018-03-27T23:08:28.240Z,32.35
2018-03-27T23:10:55.834Z,33.20
2018-03-27T23:13:23.742Z,36.45
2018-03-27T23:15:51.708Z,32.45
2018-03-27T23:18:19.216Z,34.17
2018-03-27T23:20:47.205Z,32.33
2018-03-27T23:23:15.108Z,31.98
2018-03-27T23:25:43.002Z,36.10
2018-03-27T23:28:10.968Z,31.05
2018-03-27T23:30:38.452Z,27.98
2018-03-27T23:33:05.970Z,28.70
2018-03-27T23:35:33.471Z,24.98
2018-03-27T23:38:00.981Z,25.83
2018-03-27T23:40:28.483Z,27.45
2018-03-27T23:42:56.065Z,23.42
2018-03-27T23:45:23.558Z,24.67
2018-03-27T23:47:51.070Z,28.35
2018-03-27T23:50:18.570Z,35.38
2018-03-27T23:52:46.066Z,38.92
2018-03-27T23:55:13.591Z,38.45
2018-03-27T23:57:41.483Z,44.10
